sensor_id;sensor_type;location;lat;lon;timestamp;P1;durP1;ratioP1;P2;durP2;ratioP2
77359;SDS011;66426;51.454;7.266;2023-05-19T00:00:19;5.60;;;2.97;;
77359;SDS011;66426;51.454;7.266;2023-05-19T00:01:20;5.65;;;2.90;;
77359;SDS011;66426;51.454;7.266;2023-05-19T00:02:22;6.38;;;2.78;;
77359;SDS011;66426;51.454;7.266;2023-05-19T00:03:25;5.30;;;2.78;;
77359;SDS011;66426;51.454;7.266;2023-05-19T00:04:26;6.50;;;3.05;;
77359;SDS011;66426;51.454;7.266;2023-05-19T00:05:28;4.57;;;2.22;;
77359;SDS011;66426;51.454;7.266;2023-05-19T00:06:31;6.43;;;2.60;;
77359;SDS011;66426;51.454;7.266;2023-05-19T00:07:32;4.45;;;2.70;;
77359;SDS011;66426;51.454;7.266;2023-05-19T00:08:36;8.02;;;3.00;;
77359;SDS011;66426;51.454;7.266;2023-05-19T00:09:37;6.03;;;2.97;;
77359;SDS011;66426;51.454;7.266;2023-05-19T00:10:39;6.13;;;2.75;;
77359;SDS011;66426;51.454;7.266;2023-05-19T00:11:40;3.97;;;2.38;;
77359;SDS011;66426;51.454;7.266;2023-05-19T00:12:41;5.95;;;2.72;;
77359;SDS011;66426;51.454;7.266;2023-05-19T00:13:43;5.50;;;2.67;;
77359;SDS011;66426;51.454;7.266;2023-05-19T00:14:47;7.38;;;3.28;;
77359;SDS011;66426;51.454;7.266;2023-05-19T00:15:50;7.40;;;3.00;;
77359;SDS011;66426;51.454;7.266;2023-05-19T00:16:52;5.60;;;2.50;;
77359;SDS011;66426;51.454;7.266;2023-05-19T00:17:55;9.90;;;3.58;;
77359;SDS011;66426;51.454;7.266;2023-05-19T00:18:56;6.35;;;2.75;;
77359;SDS011;66426;51.454;7.266;2023-05-19T00:19:59;8.95;;;3.00;;
77359;SDS011;66426;51.454;7.266;2023-05-19T00:21:00;7.03;;;3.05;;
77359;SDS011;66426;51.454;7.266;2023-05-19T00:22:01;4.93;;;2.60;;
77359;SDS011;66426;51.454;7.266;2023-05-19T00:23:02;5.55;;;2.58;;
77359;SDS011;66426;51.454;7.266;2023-05-19T00:24:04;5.50;;;2.50;;
77359;SDS011;66426;51.454;7.266;2023-05-19T00:25:05;6.55;;;2.97;;
77359;SDS011;66426;51.454;7.266;2023-05-19T00:26:07;12.38;;;3.15;;
77359;SDS011;66426;51.454;7.266;2023-05-19T00:27:08;7.32;;;2.63;;
77359;SDS011;66426;51.454;7.266;2023-05-19T00:28:09;4.15;;;2.47;;
77359;SDS011;66426;51.454;7.266;2023-05-19T00:29:10;5.45;;;2.67;;
77359;SDS011;66426;51.454;7.266;2023-05-19T00:30:11;4.45;;;2.45;;
77359;SDS011;66426;51.454;7.266;2023-05-19T00:31:14;5.32;;;2.67;;
77359;SDS011;66426;51.454;7.266;2023-05-19T00:32:15;7.05;;;2.72;;
77359;SDS011;66426;51.454;7.266;2023-05-19T00:33:15;3.50;;;2.40;;
77359;SDS011;66426;51.454;7.266;2023-05-19T00:34:16;3.90;;;2.55;;
77359;SDS011;66426;51.454;7.266;2023-05-19T00:35:17;6.38;;;2.80;;
77359;SDS011;66426;51.454;7.266;2023-05-19T00:36:19;5.45;;;2.83;;
77359;SDS011;66426;51.454;7.266;2023-05-19T00:37:20;7.03;;;3.00;;
77359;SDS011;66426;51.454;7.266;2023-05-19T00:38:22;7.15;;;2.90;;
77359;SDS011;66426;51.454;7.266;2023-05-19T00:39:23;9.48;;;3.15;;
77359;SDS011;66426;51.454;7.266;2023-05-19T00:40:24;9.63;;;2.90;;
77359;SDS011;66426;51.454;7.266;2023-05-19T00:41:26;5.97;;;2.75;;
77359;SDS011;66426;51.454;7.266;2023-05-19T00:42:27;9.70;;;2.65;;
77359;SDS011;66426;51.454;7.266;2023-05-19T00:43:28;8.70;;;2.97;;
77359;SDS011;66426;51.454;7.266;2023-05-19T00:44:34;5.68;;;2.70;;
77359;SDS011;66426;51.454;7.266;2023-05-19T00:45:39;9.00;;;3.33;;
77359;SDS011;66426;51.454;7.266;2023-05-19T00:46:42;5.22;;;2.85;;
77359;SDS011;66426;51.454;7.266;2023-05-19T00:47:43;7.28;;;3.42;;
77359;SDS011;66426;51.454;7.266;2023-05-19T00:48:44;6.80;;;3.45;;
77359;SDS011;66426;51.454;7.266;2023-05-19T00:49:45;7.45;;;2.90;;
77359;SDS011;66426;51.454;7.266;2023-05-19T00:50:45;10.80;;;2.92;;
77359;SDS011;66426;51.454;7.266;2023-05-19T00:51:47;6.53;;;2.95;;
77359;SDS011;66426;51.454;7.266;2023-05-19T00:52:49;5.50;;;2.85;;
77359;SDS011;66426;51.454;7.266;2023-05-19T00:53:50;8.40;;;3.22;;
77359;SDS011;66426;51.454;7.266;2023-05-19T00:54:51;4.35;;;2.63;;
77359;SDS011;66426;51.454;7.266;2023-05-19T00:55:53;6.65;;;3.10;;
77359;SDS011;66426;51.454;7.266;2023-05-19T00:56:54;5.93;;;2.95;;
77359;SDS011;66426;51.454;7.266;2023-05-19T00:57:57;7.95;;;3.03;;
77359;SDS011;66426;51.454;7.266;2023-05-19T00:58:59;9.93;;;3.17;;
77359;SDS011;66426;51.454;7.266;2023-05-19T01:00:00;6.18;;;2.95;;
77359;SDS011;66426;51.454;7.266;2023-05-19T01:01:01;6.05;;;2.75;;
77359;SDS011;66426;51.454;7.266;2023-05-19T01:02:04;5.85;;;2.90;;
77359;SDS011;66426;51.454;7.266;2023-05-19T01:03:06;16.77;;;4.32;;
77359;SDS011;66426;51.454;7.266;2023-05-19T01:04:10;5.13;;;3.22;;
77359;SDS011;66426;51.454;7.266;2023-05-19T01:05:16;8.38;;;3.15;;
77359;SDS011;66426;51.454;7.266;2023-05-19T01:06:17;5.70;;;3.22;;
77359;SDS011;66426;51.454;7.266;2023-05-19T01:07:21;6.88;;;3.25;;
77359;SDS011;66426;51.454;7.266;2023-05-19T01:08:22;9.88;;;3.80;;
77359;SDS011;66426;51.454;7.266;2023-05-19T01:09:23;6.95;;;2.92;;
77359;SDS011;66426;51.454;7.266;2023-05-19T01:10:24;5.50;;;2.92;;
77359;SDS011;66426;51.454;7.266;2023-05-19T01:11:25;5.78;;;3.03;;
77359;SDS011;66426;51.454;7.266;2023-05-19T01:12:26;6.03;;;3.28;;
77359;SDS011;66426;51.454;7.266;2023-05-19T01:13:28;5.93;;;2.83;;
77359;SDS011;66426;51.454;7.266;2023-05-19T01:14:29;8.02;;;3.53;;
77359;SDS011;66426;51.454;7.266;2023-05-19T01:15:31;4.35;;;2.83;;
77359;SDS011;66426;51.454;7.266;2023-05-19T01:16:39;6.15;;;3.42;;
77359;SDS011;66426;51.454;7.266;2023-05-19T01:17:45;5.38;;;2.95;;
77359;SDS011;66426;51.454;7.266;2023-05-19T01:18:55;8.32;;;3.92;;
77359;SDS011;66426;51.454;7.266;2023-05-19T01:20:02;9.23;;;3.55;;
77359;SDS011;66426;51.454;7.266;2023-05-19T01:23:01;8.13;;;2.97;;
77359;SDS011;66426;51.454;7.266;2023-05-19T01:24:23;6.85;;;3.28;;
77359;SDS011;66426;51.454;7.266;2023-05-19T01:27:25;6.03;;;2.97;;
77359;SDS011;66426;51.454;7.266;2023-05-19T01:31:32;5.78;;;3.05;;
77359;SDS011;66426;51.454;7.266;2023-05-19T01:32:35;8.60;;;3.05;;
77359;SDS011;66426;51.454;7.266;2023-05-19T01:33:40;7.00;;;3.10;;
77359;SDS011;66426;51.454;7.266;2023-05-19T01:34:43;6.25;;;3.38;;
77359;SDS011;66426;51.454;7.266;2023-05-19T01:35:48;10.07;;;3.40;;
77359;SDS011;66426;51.454;7.266;2023-05-19T01:36:50;8.82;;;3.53;;
77359;SDS011;66426;51.454;7.266;2023-05-19T01:37:54;4.80;;;2.78;;
77359;SDS011;66426;51.454;7.266;2023-05-19T01:38:57;6.40;;;3.42;;
77359;SDS011;66426;51.454;7.266;2023-05-19T01:39:59;7.07;;;3.38;;
77359;SDS011;66426;51.454;7.266;2023-05-19T01:41:00;7.22;;;3.22;;
77359;SDS011;66426;51.454;7.266;2023-05-19T01:42:03;8.80;;;3.45;;
77359;SDS011;66426;51.454;7.266;2023-05-19T01:43:06;8.00;;;3.45;;
77359;SDS011;66426;51.454;7.266;2023-05-19T01:44:09;10.88;;;3.55;;
77359;SDS011;66426;51.454;7.266;2023-05-19T01:45:10;6.53;;;3.50;;
77359;SDS011;66426;51.454;7.266;2023-05-19T01:46:13;6.47;;;3.40;;
77359;SDS011;66426;51.454;7.266;2023-05-19T01:47:15;7.25;;;3.03;;
77359;SDS011;66426;51.454;7.266;2023-05-19T01:48:16;5.80;;;3.30;;
77359;SDS011;66426;51.454;7.266;2023-05-19T01:49:17;9.82;;;3.90;;
77359;SDS011;66426;51.454;7.266;2023-05-19T01:50:18;8.57;;;3.15;;
77359;SDS011;66426;51.454;7.266;2023-05-19T01:51:19;8.82;;;3.38;;
77359;SDS011;66426;51.454;7.266;2023-05-19T01:52:20;10.30;;;3.60;;
77359;SDS011;66426;51.454;7.266;2023-05-19T01:53:21;8.73;;;3.33;;
77359;SDS011;66426;51.454;7.266;2023-05-19T01:54:22;10.30;;;3.70;;
77359;SDS011;66426;51.454;7.266;2023-05-19T01:55:23;7.88;;;3.80;;
77359;SDS011;66426;51.454;7.266;2023-05-19T01:56:28;7.18;;;3.10;;
77359;SDS011;66426;51.454;7.266;2023-05-19T01:57:41;10.10;;;3.72;;
77359;SDS011;66426;51.454;7.266;2023-05-19T01:58:47;11.18;;;4.10;;
77359;SDS011;66426;51.454;7.266;2023-05-19T01:59:55;9.52;;;3.03;;
77359;SDS011;66426;51.454;7.266;2023-05-19T02:01:07;10.77;;;3.42;;
77359;SDS011;66426;51.454;7.266;2023-05-19T02:02:19;5.85;;;2.95;;
77359;SDS011;66426;51.454;7.266;2023-05-19T02:03:31;7.60;;;3.65;;
77359;SDS011;66426;51.454;7.266;2023-05-19T02:05:58;5.50;;;2.83;;
77359;SDS011;66426;51.454;7.266;2023-05-19T02:07:10;9.07;;;3.92;;
77359;SDS011;66426;51.454;7.266;2023-05-19T02:08:16;6.13;;;2.95;;
77359;SDS011;66426;51.454;7.266;2023-05-19T02:09:22;7.85;;;3.00;;
77359;SDS011;66426;51.454;7.266;2023-05-19T02:10:26;8.65;;;3.20;;
77359;SDS011;66426;51.454;7.266;2023-05-19T02:11:34;7.47;;;2.92;;
77359;SDS011;66426;51.454;7.266;2023-05-19T02:12:37;7.63;;;2.88;;
77359;SDS011;66426;51.454;7.266;2023-05-19T02:13:41;7.50;;;3.03;;
77359;SDS011;66426;51.454;7.266;2023-05-19T02:14:44;6.85;;;3.20;;
77359;SDS011;66426;51.454;7.266;2023-05-19T02:15:51;8.80;;;3.33;;
77359;SDS011;66426;51.454;7.266;2023-05-19T02:16:54;8.50;;;3.10;;
77359;SDS011;66426;51.454;7.266;2023-05-19T02:17:59;7.32;;;3.47;;
77359;SDS011;66426;51.454;7.266;2023-05-19T02:19:03;7.85;;;3.22;;
77359;SDS011;66426;51.454;7.266;2023-05-19T02:20:05;6.22;;;3.35;;
77359;SDS011;66426;51.454;7.266;2023-05-19T02:21:08;6.50;;;3.17;;
77359;SDS011;66426;51.454;7.266;2023-05-19T02:22:12;5.65;;;2.88;;
77359;SDS011;66426;51.454;7.266;2023-05-19T02:23:13;8.52;;;3.35;;
77359;SDS011;66426;51.454;7.266;2023-05-19T02:24:14;6.43;;;2.65;;
77359;SDS011;66426;51.454;7.266;2023-05-19T02:25:16;9.30;;;3.20;;
77359;SDS011;66426;51.454;7.266;2023-05-19T02:26:17;6.97;;;3.17;;
77359;SDS011;66426;51.454;7.266;2023-05-19T02:27:18;9.27;;;3.95;;
77359;SDS011;66426;51.454;7.266;2023-05-19T02:28:19;4.68;;;2.88;;
77359;SDS011;66426;51.454;7.266;2023-05-19T02:29:20;5.80;;;3.10;;
77359;SDS011;66426;51.454;7.266;2023-05-19T02:30:20;8.93;;;3.33;;
77359;SDS011;66426;51.454;7.266;2023-05-19T02:31:21;6.30;;;3.05;;
77359;SDS011;66426;51.454;7.266;2023-05-19T02:32:22;8.90;;;2.63;;
77359;SDS011;66426;51.454;7.266;2023-05-19T02:33:25;6.78;;;3.03;;
77359;SDS011;66426;51.454;7.266;2023-05-19T02:34:26;7.15;;;3.25;;
77359;SDS011;66426;51.454;7.266;2023-05-19T02:35:27;7.60;;;3.30;;
77359;SDS011;66426;51.454;7.266;2023-05-19T02:36:29;7.38;;;3.40;;
77359;SDS011;66426;51.454;7.266;2023-05-19T02:37:34;5.68;;;3.03;;
77359;SDS011;66426;51.454;7.266;2023-05-19T02:38:35;6.43;;;2.90;;
77359;SDS011;66426;51.454;7.266;2023-05-19T02:39:37;7.68;;;3.03;;
77359;SDS011;66426;51.454;7.266;2023-05-19T02:40:38;6.25;;;2.92;;
77359;SDS011;66426;51.454;7.266;2023-05-19T02:41:39;8.57;;;3.15;;
77359;SDS011;66426;51.454;7.266;2023-05-19T02:42:39;6.95;;;3.30;;
77359;SDS011;66426;51.454;7.266;2023-05-19T02:43:40;10.27;;;3.35;;
77359;SDS011;66426;51.454;7.266;2023-05-19T02:44:41;7.05;;;3.08;;
77359;SDS011;66426;51.454;7.266;2023-05-19T02:45:42;5.10;;;3.42;;
77359;SDS011;66426;51.454;7.266;2023-05-19T02:46:43;8.50;;;3.53;;
77359;SDS011;66426;51.454;7.266;2023-05-19T02:47:44;6.43;;;3.40;;
77359;SDS011;66426;51.454;7.266;2023-05-19T02:48:46;6.20;;;2.88;;
77359;SDS011;66426;51.454;7.266;2023-05-19T02:49:47;4.63;;;2.85;;
77359;SDS011;66426;51.454;7.266;2023-05-19T02:50:48;5.65;;;3.25;;
77359;SDS011;66426;51.454;7.266;2023-05-19T02:51:49;8.13;;;3.22;;
77359;SDS011;66426;51.454;7.266;2023-05-19T02:52:50;9.18;;;3.38;;
77359;SDS011;66426;51.454;7.266;2023-05-19T02:53:52;9.05;;;2.97;;
77359;SDS011;66426;51.454;7.266;2023-05-19T02:54:53;8.95;;;3.88;;
77359;SDS011;66426;51.454;7.266;2023-05-19T02:55:54;7.00;;;3.15;;
77359;SDS011;66426;51.454;7.266;2023-05-19T02:56:54;5.30;;;2.97;;
77359;SDS011;66426;51.454;7.266;2023-05-19T02:57:55;4.43;;;2.70;;
77359;SDS011;66426;51.454;7.266;2023-05-19T02:58:56;5.53;;;3.00;;
77359;SDS011;66426;51.454;7.266;2023-05-19T02:59:59;4.43;;;2.90;;
77359;SDS011;66426;51.454;7.266;2023-05-19T03:01:00;4.82;;;3.03;;
77359;SDS011;66426;51.454;7.266;2023-05-19T03:02:01;8.48;;;3.75;;
77359;SDS011;66426;51.454;7.266;2023-05-19T03:03:02;5.90;;;2.90;;
77359;SDS011;66426;51.454;7.266;2023-05-19T03:04:05;9.45;;;3.50;;
77359;SDS011;66426;51.454;7.266;2023-05-19T03:05:06;7.93;;;3.05;;
77359;SDS011;66426;51.454;7.266;2023-05-19T03:06:08;4.82;;;3.15;;
77359;SDS011;66426;51.454;7.266;2023-05-19T03:07:09;7.20;;;3.10;;
77359;SDS011;66426;51.454;7.266;2023-05-19T03:08:10;6.43;;;3.20;;
77359;SDS011;66426;51.454;7.266;2023-05-19T03:09:10;6.05;;;3.00;;
77359;SDS011;66426;51.454;7.266;2023-05-19T03:10:12;6.10;;;3.25;;
77359;SDS011;66426;51.454;7.266;2023-05-19T03:11:13;4.82;;;3.20;;
77359;SDS011;66426;51.454;7.266;2023-05-19T03:12:14;6.88;;;3.05;;
77359;SDS011;66426;51.454;7.266;2023-05-19T03:13:15;5.90;;;3.20;;
77359;SDS011;66426;51.454;7.266;2023-05-19T03:14:16;8.30;;;3.22;;
77359;SDS011;66426;51.454;7.266;2023-05-19T03:15:17;7.15;;;3.25;;
77359;SDS011;66426;51.454;7.266;2023-05-19T03:16:18;5.63;;;3.08;;
77359;SDS011;66426;51.454;7.266;2023-05-19T03:17:19;6.15;;;3.20;;
77359;SDS011;66426;51.454;7.266;2023-05-19T03:18:20;6.72;;;3.33;;
77359;SDS011;66426;51.454;7.266;2023-05-19T03:19:25;5.43;;;3.03;;
77359;SDS011;66426;51.454;7.266;2023-05-19T03:20:26;7.07;;;3.30;;
77359;SDS011;66426;51.454;7.266;2023-05-19T03:21:29;5.75;;;2.90;;
77359;SDS011;66426;51.454;7.266;2023-05-19T03:22:31;8.55;;;3.65;;
77359;SDS011;66426;51.454;7.266;2023-05-19T03:23:32;5.82;;;3.00;;
77359;SDS011;66426;51.454;7.266;2023-05-19T03:24:33;8.98;;;3.67;;
77359;SDS011;66426;51.454;7.266;2023-05-19T03:25:34;9.25;;;3.33;;
77359;SDS011;66426;51.454;7.266;2023-05-19T03:26:35;5.53;;;3.03;;
77359;SDS011;66426;51.454;7.266;2023-05-19T03:27:36;9.90;;;3.33;;
77359;SDS011;66426;51.454;7.266;2023-05-19T03:28:37;6.93;;;3.35;;
77359;SDS011;66426;51.454;7.266;2023-05-19T03:29:38;7.78;;;3.30;;
77359;SDS011;66426;51.454;7.266;2023-05-19T03:30:39;4.68;;;2.95;;
77359;SDS011;66426;51.454;7.266;2023-05-19T03:31:40;4.90;;;3.05;;
77359;SDS011;66426;51.454;7.266;2023-05-19T03:32:41;6.28;;;3.45;;
77359;SDS011;66426;51.454;7.266;2023-05-19T03:33:42;10.25;;;3.13;;
77359;SDS011;66426;51.454;7.266;2023-05-19T03:34:44;6.88;;;3.42;;
77359;SDS011;66426;51.454;7.266;2023-05-19T03:35:45;4.88;;;3.08;;
77359;SDS011;66426;51.454;7.266;2023-05-19T03:36:46;7.28;;;3.65;;
77359;SDS011;66426;51.454;7.266;2023-05-19T03:37:49;8.02;;;3.20;;
77359;SDS011;66426;51.454;7.266;2023-05-19T03:38:50;7.97;;;3.45;;
77359;SDS011;66426;51.454;7.266;2023-05-19T03:39:51;6.30;;;3.25;;
77359;SDS011;66426;51.454;7.266;2023-05-19T03:40:52;8.30;;;3.22;;
77359;SDS011;66426;51.454;7.266;2023-05-19T03:41:53;6.70;;;3.10;;
77359;SDS011;66426;51.454;7.266;2023-05-19T03:42:55;8.05;;;3.42;;
77359;SDS011;66426;51.454;7.266;2023-05-19T03:43:56;6.03;;;3.17;;
77359;SDS011;66426;51.454;7.266;2023-05-19T03:44:57;6.03;;;3.10;;
77359;SDS011;66426;51.454;7.266;2023-05-19T03:45:58;9.27;;;3.50;;
77359;SDS011;66426;51.454;7.266;2023-05-19T03:46:59;9.63;;;3.50;;
77359;SDS011;66426;51.454;7.266;2023-05-19T03:48:00;8.65;;;3.15;;
77359;SDS011;66426;51.454;7.266;2023-05-19T03:49:01;5.90;;;3.60;;
77359;SDS011;66426;51.454;7.266;2023-05-19T03:50:03;4.65;;;2.80;;
77359;SDS011;66426;51.454;7.266;2023-05-19T03:51:05;6.57;;;3.25;;
77359;SDS011;66426;51.454;7.266;2023-05-19T03:52:05;8.23;;;3.60;;
77359;SDS011;66426;51.454;7.266;2023-05-19T03:53:06;8.88;;;3.20;;
77359;SDS011;66426;51.454;7.266;2023-05-19T03:54:07;6.50;;;3.13;;
77359;SDS011;66426;51.454;7.266;2023-05-19T03:55:08;5.47;;;3.22;;
77359;SDS011;66426;51.454;7.266;2023-05-19T03:56:09;6.15;;;3.78;;
77359;SDS011;66426;51.454;7.266;2023-05-19T03:57:13;6.00;;;3.80;;
77359;SDS011;66426;51.454;7.266;2023-05-19T03:58:14;7.47;;;3.20;;
77359;SDS011;66426;51.454;7.266;2023-05-19T03:59:15;6.93;;;3.33;;
77359;SDS011;66426;51.454;7.266;2023-05-19T04:00:16;7.47;;;3.78;;
77359;SDS011;66426;51.454;7.266;2023-05-19T04:01:17;10.18;;;3.60;;
77359;SDS011;66426;51.454;7.266;2023-05-19T04:02:18;5.70;;;3.45;;
77359;SDS011;66426;51.454;7.266;2023-05-19T04:03:19;6.10;;;3.28;;
77359;SDS011;66426;51.454;7.266;2023-05-19T04:04:20;8.48;;;3.60;;
77359;SDS011;66426;51.454;7.266;2023-05-19T04:05:22;8.88;;;3.75;;
77359;SDS011;66426;51.454;7.266;2023-05-19T04:06:23;6.90;;;3.90;;
77359;SDS011;66426;51.454;7.266;2023-05-19T04:07:24;6.30;;;3.60;;
77359;SDS011;66426;51.454;7.266;2023-05-19T04:08:25;7.70;;;3.40;;
77359;SDS011;66426;51.454;7.266;2023-05-19T04:09:26;7.93;;;3.63;;
77359;SDS011;66426;51.454;7.266;2023-05-19T04:10:27;7.35;;;4.40;;
77359;SDS011;66426;51.454;7.266;2023-05-19T04:11:28;6.85;;;3.50;;
77359;SDS011;66426;51.454;7.266;2023-05-19T04:12:29;9.80;;;3.63;;
77359;SDS011;66426;51.454;7.266;2023-05-19T04:13:31;7.65;;;3.67;;
77359;SDS011;66426;51.454;7.266;2023-05-19T04:14:32;12.95;;;3.78;;
77359;SDS011;66426;51.454;7.266;2023-05-19T04:15:33;9.93;;;4.28;;
77359;SDS011;66426;51.454;7.266;2023-05-19T04:16:34;6.45;;;3.60;;
77359;SDS011;66426;51.454;7.266;2023-05-19T04:17:35;12.18;;;3.72;;
77359;SDS011;66426;51.454;7.266;2023-05-19T04:18:36;9.90;;;3.58;;
77359;SDS011;66426;51.454;7.266;2023-05-19T04:19:37;9.23;;;3.60;;
77359;SDS011;66426;51.454;7.266;2023-05-19T04:20:40;8.55;;;3.63;;
77359;SDS011;66426;51.454;7.266;2023-05-19T04:21:40;7.20;;;3.90;;
77359;SDS011;66426;51.454;7.266;2023-05-19T04:22:41;5.45;;;3.60;;
77359;SDS011;66426;51.454;7.266;2023-05-19T04:23:42;9.90;;;3.53;;
77359;SDS011;66426;51.454;7.266;2023-05-19T04:24:43;8.05;;;3.80;;
77359;SDS011;66426;51.454;7.266;2023-05-19T04:25:45;7.95;;;4.00;;
77359;SDS011;66426;51.454;7.266;2023-05-19T04:26:48;9.70;;;3.58;;
77359;SDS011;66426;51.454;7.266;2023-05-19T04:27:49;7.70;;;3.58;;
77359;SDS011;66426;51.454;7.266;2023-05-19T04:28:50;9.60;;;3.75;;
77359;SDS011;66426;51.454;7.266;2023-05-19T04:29:51;6.63;;;4.00;;
77359;SDS011;66426;51.454;7.266;2023-05-19T04:30:52;6.32;;;3.67;;
77359;SDS011;66426;51.454;7.266;2023-05-19T04:31:53;10.43;;;4.07;;
77359;SDS011;66426;51.454;7.266;2023-05-19T04:32:54;8.60;;;3.70;;
77359;SDS011;66426;51.454;7.266;2023-05-19T04:33:57;9.73;;;3.80;;
77359;SDS011;66426;51.454;7.266;2023-05-19T04:35:01;7.15;;;3.85;;
77359;SDS011;66426;51.454;7.266;2023-05-19T04:36:04;9.88;;;4.07;;
77359;SDS011;66426;51.454;7.266;2023-05-19T04:37:07;11.57;;;4.03;;
77359;SDS011;66426;51.454;7.266;2023-05-19T04:38:09;15.93;;;4.40;;
77359;SDS011;66426;51.454;7.266;2023-05-19T04:39:11;10.13;;;3.95;;
77359;SDS011;66426;51.454;7.266;2023-05-19T04:40:13;7.85;;;3.47;;
77359;SDS011;66426;51.454;7.266;2023-05-19T04:41:15;8.93;;;4.30;;
77359;SDS011;66426;51.454;7.266;2023-05-19T04:42:16;8.07;;;4.38;;
77359;SDS011;66426;51.454;7.266;2023-05-19T04:43:20;8.65;;;4.45;;
77359;SDS011;66426;51.454;7.266;2023-05-19T04:44:21;6.50;;;4.32;;
77359;SDS011;66426;51.454;7.266;2023-05-19T04:45:22;7.40;;;3.95;;
77359;SDS011;66426;51.454;7.266;2023-05-19T04:46:25;12.05;;;3.85;;
77359;SDS011;66426;51.454;7.266;2023-05-19T04:47:26;8.85;;;4.22;;
77359;SDS011;66426;51.454;7.266;2023-05-19T04:48:29;8.52;;;4.55;;
77359;SDS011;66426;51.454;7.266;2023-05-19T04:49:30;9.13;;;4.22;;
77359;SDS011;66426;51.454;7.266;2023-05-19T04:50:31;8.68;;;4.60;;
77359;SDS011;66426;51.454;7.266;2023-05-19T04:51:34;7.35;;;4.05;;
77359;SDS011;66426;51.454;7.266;2023-05-19T04:52:35;9.50;;;4.15;;
77359;SDS011;66426;51.454;7.266;2023-05-19T04:53:37;8.10;;;4.05;;
77359;SDS011;66426;51.454;7.266;2023-05-19T04:54:39;9.27;;;4.30;;
77359;SDS011;66426;51.454;7.266;2023-05-19T04:55:41;8.05;;;4.10;;
77359;SDS011;66426;51.454;7.266;2023-05-19T04:56:42;7.95;;;4.30;;
77359;SDS011;66426;51.454;7.266;2023-05-19T04:57:43;12.00;;;4.28;;
77359;SDS011;66426;51.454;7.266;2023-05-19T04:58:44;13.55;;;4.95;;
77359;SDS011;66426;51.454;7.266;2023-05-19T04:59:44;11.50;;;4.40;;
77359;SDS011;66426;51.454;7.266;2023-05-19T05:00:45;8.38;;;4.55;;
77359;SDS011;66426;51.454;7.266;2023-05-19T05:01:46;12.65;;;4.82;;
77359;SDS011;66426;51.454;7.266;2023-05-19T05:02:47;9.48;;;5.15;;
77359;SDS011;66426;51.454;7.266;2023-05-19T05:03:49;7.90;;;4.63;;
77359;SDS011;66426;51.454;7.266;2023-05-19T05:04:50;9.38;;;4.68;;
77359;SDS011;66426;51.454;7.266;2023-05-19T05:05:53;8.07;;;4.90;;
77359;SDS011;66426;51.454;7.266;2023-05-19T05:06:57;15.18;;;5.28;;
77359;SDS011;66426;51.454;7.266;2023-05-19T05:07:58;7.70;;;4.97;;
77359;SDS011;66426;51.454;7.266;2023-05-19T05:08:59;9.90;;;4.45;;
77359;SDS011;66426;51.454;7.266;2023-05-19T05:10:00;10.60;;;4.88;;
77359;SDS011;66426;51.454;7.266;2023-05-19T05:11:01;8.77;;;4.78;;
77359;SDS011;66426;51.454;7.266;2023-05-19T05:12:02;9.80;;;4.88;;
77359;SDS011;66426;51.454;7.266;2023-05-19T05:13:04;13.70;;;5.15;;
77359;SDS011;66426;51.454;7.266;2023-05-19T05:14:05;6.82;;;4.50;;
77359;SDS011;66426;51.454;7.266;2023-05-19T05:15:07;6.63;;;4.80;;
77359;SDS011;66426;51.454;7.266;2023-05-19T05:16:09;8.32;;;4.75;;
77359;SDS011;66426;51.454;7.266;2023-05-19T05:17:12;14.57;;;5.18;;
77359;SDS011;66426;51.454;7.266;2023-05-19T05:18:13;13.93;;;6.35;;
77359;SDS011;66426;51.454;7.266;2023-05-19T05:19:15;12.23;;;5.10;;
77359;SDS011;66426;51.454;7.266;2023-05-19T05:20:16;8.57;;;4.82;;
77359;SDS011;66426;51.454;7.266;2023-05-19T05:21:19;12.35;;;5.20;;
77359;SDS011;66426;51.454;7.266;2023-05-19T05:22:22;11.13;;;4.70;;
77359;SDS011;66426;51.454;7.266;2023-05-19T05:23:23;13.13;;;5.20;;
77359;SDS011;66426;51.454;7.266;2023-05-19T05:24:25;9.13;;;4.97;;
77359;SDS011;66426;51.454;7.266;2023-05-19T05:25:27;10.25;;;5.20;;
77359;SDS011;66426;51.454;7.266;2023-05-19T05:26:29;13.07;;;5.50;;
77359;SDS011;66426;51.454;7.266;2023-05-19T05:27:32;9.90;;;5.05;;
77359;SDS011;66426;51.454;7.266;2023-05-19T05:28:33;8.57;;;4.72;;
77359;SDS011;66426;51.454;7.266;2023-05-19T05:29:34;11.68;;;5.10;;
77359;SDS011;66426;51.454;7.266;2023-05-19T05:30:36;15.88;;;5.85;;
77359;SDS011;66426;51.454;7.266;2023-05-19T05:31:37;8.32;;;4.75;;
77359;SDS011;66426;51.454;7.266;2023-05-19T05:32:38;8.80;;;4.47;;
77359;SDS011;66426;51.454;7.266;2023-05-19T05:33:39;13.95;;;5.25;;
77359;SDS011;66426;51.454;7.266;2023-05-19T05:34:40;8.48;;;4.63;;
77359;SDS011;66426;51.454;7.266;2023-05-19T05:35:41;10.57;;;4.95;;
77359;SDS011;66426;51.454;7.266;2023-05-19T05:36:42;9.43;;;5.40;;
77359;SDS011;66426;51.454;7.266;2023-05-19T05:37:44;11.52;;;5.55;;
77359;SDS011;66426;51.454;7.266;2023-05-19T05:38:45;9.73;;;5.05;;
77359;SDS011;66426;51.454;7.266;2023-05-19T05:39:46;9.57;;;5.47;;
77359;SDS011;66426;51.454;7.266;2023-05-19T05:40:47;9.40;;;5.18;;
77359;SDS011;66426;51.454;7.266;2023-05-19T05:41:48;10.10;;;5.30;;
77359;SDS011;66426;51.454;7.266;2023-05-19T05:42:49;11.50;;;5.30;;
77359;SDS011;66426;51.454;7.266;2023-05-19T05:43:50;11.15;;;4.95;;
77359;SDS011;66426;51.454;7.266;2023-05-19T05:44:50;13.15;;;4.80;;
77359;SDS011;66426;51.454;7.266;2023-05-19T05:45:51;10.85;;;4.97;;
77359;SDS011;66426;51.454;7.266;2023-05-19T05:46:52;9.40;;;4.90;;
77359;SDS011;66426;51.454;7.266;2023-05-19T05:47:54;9.73;;;4.55;;
77359;SDS011;66426;51.454;7.266;2023-05-19T05:48:55;8.40;;;4.45;;
77359;SDS011;66426;51.454;7.266;2023-05-19T05:49:57;12.35;;;4.50;;
77359;SDS011;66426;51.454;7.266;2023-05-19T05:50:58;11.90;;;4.97;;
77359;SDS011;66426;51.454;7.266;2023-05-19T05:52:00;7.35;;;4.38;;
77359;SDS011;66426;51.454;7.266;2023-05-19T05:53:03;8.68;;;4.78;;
77359;SDS011;66426;51.454;7.266;2023-05-19T05:54:06;6.70;;;4.35;;
77359;SDS011;66426;51.454;7.266;2023-05-19T05:55:11;8.32;;;4.68;;
77359;SDS011;66426;51.454;7.266;2023-05-19T05:56:13;7.63;;;4.78;;
77359;SDS011;66426;51.454;7.266;2023-05-19T05:57:15;9.75;;;5.60;;
77359;SDS011;66426;51.454;7.266;2023-05-19T05:58:16;9.55;;;4.75;;
77359;SDS011;66426;51.454;7.266;2023-05-19T05:59:17;13.95;;;5.30;;
77359;SDS011;66426;51.454;7.266;2023-05-19T06:00:18;12.00;;;5.75;;
77359;SDS011;66426;51.454;7.266;2023-05-19T06:01:20;9.90;;;4.93;;
77359;SDS011;66426;51.454;7.266;2023-05-19T06:02:23;12.00;;;4.43;;
77359;SDS011;66426;51.454;7.266;2023-05-19T06:03:24;10.40;;;4.70;;
77359;SDS011;66426;51.454;7.266;2023-05-19T06:04:25;9.15;;;4.72;;
77359;SDS011;66426;51.454;7.266;2023-05-19T06:05:26;10.63;;;5.15;;
77359;SDS011;66426;51.454;7.266;2023-05-19T06:06:27;6.88;;;3.90;;
77359;SDS011;66426;51.454;7.266;2023-05-19T06:07:28;10.43;;;5.03;;
77359;SDS011;66426;51.454;7.266;2023-05-19T06:08:30;9.10;;;4.95;;
77359;SDS011;66426;51.454;7.266;2023-05-19T06:09:31;10.57;;;5.22;;
77359;SDS011;66426;51.454;7.266;2023-05-19T06:10:32;10.48;;;4.90;;
77359;SDS011;66426;51.454;7.266;2023-05-19T06:11:34;8.52;;;4.40;;
77359;SDS011;66426;51.454;7.266;2023-05-19T06:12:36;11.70;;;4.80;;
77359;SDS011;66426;51.454;7.266;2023-05-19T06:13:40;8.25;;;4.30;;
77359;SDS011;66426;51.454;7.266;2023-05-19T06:14:40;9.98;;;4.60;;
77359;SDS011;66426;51.454;7.266;2023-05-19T06:15:41;7.53;;;4.30;;
77359;SDS011;66426;51.454;7.266;2023-05-19T06:16:42;11.25;;;5.00;;
77359;SDS011;66426;51.454;7.266;2023-05-19T06:17:43;13.27;;;4.75;;
77359;SDS011;66426;51.454;7.266;2023-05-19T06:18:44;12.95;;;5.07;;
77359;SDS011;66426;51.454;7.266;2023-05-19T06:19:45;8.73;;;4.85;;
77359;SDS011;66426;51.454;7.266;2023-05-19T06:20:46;10.00;;;4.60;;